Time;durP1;ratioP1;P1;durP2;ratioP2;P2;SDS_P1;SDS_P2;PMS_P1;PMS_P2;Temp;Humidity;BMP_temperature;BMP_pressure;BME280_temperature;BME280_humidity;BME280_pressure;Samples;Min_cycle;Max_cycle;Signal;HPM_P1;HPM_P2
2022/05/19 00:02:19;;;;;;;9.38;3.55;;;18.90;99.90;;;;;;5031930;28;20041;-62
2022/05/19 00:04:45;;;;;;;9.93;3.65;;;18.90;99.90;;;;;;5032254;28;20479;-62
2022/05/19 00:07:11;;;;;;;7.47;3.15;;;18.90;99.90;;;;;;5027971;28;20494;-63
2022/05/19 00:09:37;;;;;;;6.40;2.78;;;18.90;99.90;;;;;;5032151;28;20033;-64
2022/05/19 00:12:18;;;;;;;9.88;3.30;;;18.90;99.90;;;;;;5027178;28;20109;-64
2022/05/19 00:14:44;;;;;;;3.80;2.97;;;18.90;99.90;;;;;;5028298;28;20032;-63
2022/05/19 00:17:10;;;;;;;4.60;2.92;;;18.90;99.90;;;;;;5030990;28;20025;-62
2022/05/19 00:19:35;;;;;;;5.00;3.20;;;18.80;99.90;;;;;;5032820;28;20034;-62
2022/05/19 00:22:01;;;;;;;4.55;3.30;;;18.80;99.90;;;;;;5032396;28;20380;-63
2022/05/19 00:24:28;;;;;;;3.88;2.45;;;18.80;99.90;;;;;;5032139;28;20036;-63
2022/05/19 00:26:53;;;;;;;4.43;2.83;;;18.80;99.90;;;;;;5031319;28;20491;-62
2022/05/19 00:29:19;;;;;;;4.30;3.17;;;18.80;99.90;;;;;;5027775;28;20036;-62
2022/05/19 00:31:45;;;;;;;7.38;2.70;;;18.70;99.90;;;;;;5031571;28;20026;-64
2022/05/19 00:34:10;;;;;;;9.05;2.92;;;18.70;99.90;;;;;;5032673;28;20425;-64
2022/05/19 00:36:37;;;;;;;3.88;2.95;;;18.70;99.90;;;;;;5030472;28;20071;-63
2022/05/19 00:39:03;;;;;;;7.22;4.05;;;18.70;99.90;;;;;;5032748;28;20030;-63
2022/05/19 00:41:29;;;;;;;6.82;3.35;;;18.80;99.90;;;;;;5031504;28;20273;-63
2022/05/19 00:44:00;;;;;;;5.05;3.35;;;18.80;99.90;;;;;;5032634;28;20037;-63
2022/05/19 00:47:08;;;;;;;5.57;3.00;;;18.80;99.90;;;;;;5028059;28;20487;-65
2022/05/19 00:49:40;;;;;;;4.05;2.80;;;18.80;99.90;;;;;;5008666;28;20527;-63
2022/05/19 00:52:27;;;;;;;4.28;2.75;;;18.80;99.90;;;;;;5028939;28;20156;-64
2022/05/19 00:55:04;;;;;;;5.38;3.40;;;18.80;99.90;;;;;;5031029;28;20025;-63
2022/05/19 00:57:32;;;;;;;5.45;2.55;;;18.80;99.90;;;;;;5026518;28;20021;-64
2022/05/19 01:00:03;;;;;;;6.15;3.72;;;18.80;99.90;;;;;;5032769;28;20033;-63
2022/05/19 01:02:32;;;;;;;5.47;2.88;;;18.80;99.90;;;;;;5028232;28;20037;-64
2022/05/19 01:05:12;;;;;;;6.82;3.47;;;18.80;99.90;;;;;;5026994;28;20029;-63
2022/05/19 01:07:46;;;;;;;4.97;3.00;;;18.80;99.90;;;;;;5022678;28;20376;-64
2022/05/19 01:10:12;;;;;;;3.30;2.97;;;18.80;99.90;;;;;;5025269;28;20113;-64
2022/05/19 01:12:38;;;;;;;4.93;2.90;;;18.80;99.90;;;;;;5025829;28;20048;-63
2022/05/19 01:15:04;;;;;;;6.75;3.22;;;18.80;99.90;;;;;;5027522;28;20025;-63
2022/05/19 01:17:32;;;;;;;4.05;3.17;;;18.80;99.90;;;;;;5022411;28;20463;-63
2022/05/19 01:20:04;;;;;;;4.35;3.15;;;18.70;99.90;;;;;;5021405;28;20112;-64
2022/05/19 01:22:59;;;;;;;4.25;2.92;;;18.70;99.90;;;;;;5023544;28;20498;-65
2022/05/19 01:25:42;;;;;;;4.60;2.75;;;18.70;99.90;;;;;;5029531;28;20037;-64
2022/05/19 01:28:09;;;;;;;4.87;3.07;;;18.70;99.90;;;;;;5027979;28;20387;-64
2022/05/19 01:30:35;;;;;;;3.90;2.83;;;18.60;99.90;;;;;;5031437;28;20498;-63
2022/05/19 01:33:00;;;;;;;4.45;2.83;;;18.60;99.90;;;;;;5027989;28;20022;-62
2022/05/19 01:35:32;;;;;;;6.25;3.35;;;18.60;99.90;;;;;;5031161;28;20105;-64
2022/05/19 01:37:57;;;;;;;4.90;3.45;;;18.60;99.90;;;;;;5031461;28;20399;-64
2022/05/19 01:40:50;;;;;;;6.15;3.05;;;18.60;99.90;;;;;;5031742;28;20025;-64
2022/05/19 01:43:21;;;;;;;7.45;3.20;;;18.60;99.90;;;;;;5031248;28;20029;-65
2022/05/19 01:46:09;;;;;;;4.43;2.63;;;18.60;99.90;;;;;;5031165;28;20036;-63
2022/05/19 01:48:45;;;;;;;5.00;2.53;;;18.60;99.90;;;;;;5028742;28;20036;-64
2022/05/19 01:51:15;;;;;;;4.30;3.08;;;18.60;99.90;;;;;;5028644;28;20396;-63
2022/05/19 01:54:14;;;;;;;3.38;2.53;;;18.70;99.90;;;;;;5031238;28;20506;-64
2022/05/19 01:56:43;;;;;;;5.70;3.60;;;18.70;99.90;;;;;;5028544;28;20037;-64
2022/05/19 01:59:11;;;;;;;4.28;2.95;;;18.70;99.90;;;;;;5030431;28;20506;-64
2022/05/19 02:01:42;;;;;;;4.57;2.78;;;18.70;99.90;;;;;;5031179;28;20033;-64
2022/05/19 02:04:19;;;;;;;9.95;2.63;;;18.70;99.90;;;;;;5030358;28;20025;-64
2022/05/19 02:06:54;;;;;;;5.43;3.25;;;18.60;99.90;;;;;;5025372;28;20715;-64
2022/05/19 02:09:24;;;;;;;5.25;2.72;;;18.60;99.90;;;;;;5025261;28;20445;-64
2022/05/19 02:11:56;;;;;;;10.13;3.38;;;18.60;99.90;;;;;;5030031;28;20033;-63
2022/05/19 02:14:47;;;;;;;5.80;2.70;;;18.60;99.90;;;;;;5028336;28;20021;-64
2022/05/19 02:17:16;;;;;;;6.45;3.42;;;18.60;99.90;;;;;;5027658;28;20022;-64
2022/05/19 02:19:49;;;;;;;5.40;3.40;;;18.60;99.90;;;;;;5031614;28;20026;-64
2022/05/19 02:22:21;;;;;;;5.13;3.38;;;18.60;99.90;;;;;;5030096;28;20038;-63
2022/05/19 02:25:24;;;;;;;10.98;3.42;;;18.60;99.90;;;;;;5030733;28;20514;-64
2022/05/19 02:28:06;;;;;;;4.57;2.30;;;18.60;99.90;;;;;;5031262;28;20415;-63
2022/05/19 02:30:34;;;;;;;5.78;2.95;;;18.60;99.90;;;;;;5028042;28;20128;-62
2022/05/19 02:33:00;;;;;;;3.90;2.80;;;18.60;99.90;;;;;;5031131;28;20457;-64
2022/05/19 02:35:26;;;;;;;3.22;2.38;;;18.50;99.90;;;;;;5029348;28;20112;-65
2022/05/19 02:37:53;;;;;;;4.43;3.35;;;18.60;99.90;;;;;;5031429;28;20041;-64
2022/05/19 02:40:20;;;;;;;3.60;2.53;;;18.60;99.90;;;;;;5027331;28;20044;-64
2022/05/19 02:42:46;;;;;;;7.57;2.67;;;18.60;99.90;;;;;;5030016;28;20040;-64
2022/05/19 02:45:14;;;;;;;4.55;3.75;;;18.60;99.90;;;;;;5026085;28;20120;-64
2022/05/19 02:47:40;;;;;;;4.38;2.90;;;18.60;99.90;;;;;;5029435;28;20030;-63
2022/05/19 02:50:06;;;;;;;5.60;2.83;;;18.60;99.90;;;;;;5028072;28;20133;-64
2022/05/19 02:52:32;;;;;;;6.32;2.88;;;18.60;99.90;;;;;;5028532;28;20096;-65
2022/05/19 02:54:58;;;;;;;9.98;2.80;;;18.70;99.90;;;;;;5028904;28;20060;-64
2022/05/19 02:57:23;;;;;;;3.38;2.50;;;18.70;99.90;;;;;;5030896;28;20076;-63
2022/05/19 02:59:49;;;;;;;3.28;2.40;;;18.70;99.90;;;;;;5029208;28;20498;-65
2022/05/19 03:02:14;;;;;;;8.05;3.30;;;18.70;99.90;;;;;;5030262;28;20497;-62
2022/05/19 03:04:40;;;;;;;5.90;2.40;;;18.70;99.90;;;;;;5029321;28;20034;-63
2022/05/19 03:07:06;;;;;;;3.42;2.65;;;18.60;99.90;;;;;;5030454;28;20034;-63
2022/05/19 03:09:32;;;;;;;5.00;2.95;;;18.60;99.90;;;;;;5027724;28;20060;-64
2022/05/19 03:11:58;;;;;;;5.00;3.47;;;18.60;99.90;;;;;;5030348;28;20425;-64
2022/05/19 03:14:23;;;;;;;5.78;3.28;;;18.60;99.90;;;;;;5027753;28;20022;-62
2022/05/19 03:16:49;;;;;;;4.20;2.78;;;18.60;99.90;;;;;;5028782;28;20383;-64
2022/05/19 03:19:16;;;;;;;4.85;3.00;;;18.60;99.90;;;;;;5029062;28;20033;-64
2022/05/19 03:21:42;;;;;;;6.65;2.75;;;18.50;99.90;;;;;;5031053;28;20399;-61
2022/05/19 03:24:08;;;;;;;4.30;2.78;;;18.50;99.90;;;;;;5028213;28;20041;-65
2022/05/19 03:26:34;;;;;;;3.83;2.47;;;18.50;99.90;;;;;;5030917;28;20399;-63
2022/05/19 03:29:00;;;;;;;4.15;2.75;;;18.40;99.90;;;;;;5032066;28;20030;-64
2022/05/19 03:31:26;;;;;;;3.78;2.45;;;18.40;99.90;;;;;;5030821;28;20029;-64
2022/05/19 03:33:52;;;;;;;5.15;3.30;;;18.50;99.90;;;;;;5033481;28;20018;-63
2022/05/19 03:36:17;;;;;;;2.17;2.03;;;18.40;99.90;;;;;;5034145;28;20021;-64
2022/05/19 03:38:43;;;;;;;4.85;3.08;;;18.40;99.90;;;;;;5076779;22;20494;-63
2022/05/19 03:41:08;;;;;;;3.63;2.58;;;18.40;99.90;;;;;;5069836;28;20021;-63
2022/05/19 03:43:34;;;;;;;3.15;2.40;;;18.40;99.90;;;;;;5070005;28;20107;-63
2022/05/19 03:46:01;;;;;;;2.92;2.47;;;18.40;99.90;;;;;;5068850;28;20409;-64
2022/05/19 03:48:31;;;;;;;4.72;2.72;;;18.30;99.90;;;;;;5067685;28;20027;-63
2022/05/19 03:50:57;;;;;;;6.25;2.75;;;18.30;99.90;;;;;;5070952;28;20040;-63
2022/05/19 03:53:23;;;;;;;2.90;2.53;;;18.30;99.90;;;;;;5064715;28;20025;-63
2022/05/19 03:55:48;;;;;;;5.20;2.75;;;18.30;99.90;;;;;;5059265;28;20025;-63
2022/05/19 03:58:14;;;;;;;6.88;3.10;;;18.30;99.90;;;;;;5057815;28;20025;-63
2022/05/19 04:00:39;;;;;;;7.38;3.10;;;18.20;99.90;;;;;;5055282;28;20032;-64
2022/05/19 04:03:05;;;;;;;4.25;3.53;;;18.10;99.90;;;;;;5070512;28;20111;-63
2022/05/19 04:05:30;;;;;;;7.63;3.15;;;18.20;99.90;;;;;;5056021;28;20033;-63
2022/05/19 04:07:56;;;;;;;5.95;3.10;;;18.20;99.90;;;;;;5063047;28;20036;-63
2022/05/19 04:10:22;;;;;;;4.60;2.72;;;18.20;99.90;;;;;;5061572;28;20025;-64
2022/05/19 04:12:47;;;;;;;3.53;3.05;;;18.20;99.90;;;;;;5063564;28;20036;-63
2022/05/19 04:15:13;;;;;;;5.15;2.88;;;18.30;99.90;;;;;;5055920;28;20115;-64
2022/05/19 04:17:39;;;;;;;6.15;3.28;;;18.20;99.90;;;;;;5063934;28;20096;-64
2022/05/19 04:20:08;;;;;;;5.13;3.17;;;18.30;99.90;;;;;;5053083;28;20731;-63
2022/05/19 04:22:34;;;;;;;7.57;3.25;;;18.30;99.90;;;;;;5059803;28;20025;-64
2022/05/19 04:25:00;;;;;;;4.40;3.17;;;18.30;99.90;;;;;;5061998;28;20037;-63
2022/05/19 04:27:30;;;;;;;3.45;2.97;;;18.20;99.90;;;;;;5065985;28;20062;-64
2022/05/19 04:29:57;;;;;;;3.72;2.70;;;18.20;99.90;;;;;;5066174;28;20106;-64
2022/05/19 04:32:23;;;;;;;7.30;3.10;;;18.20;99.90;;;;;;5068668;28;20028;-64
2022/05/19 04:34:48;;;;;;;4.05;2.90;;;18.30;99.90;;;;;;5071430;28;20078;-64
2022/05/19 04:37:14;;;;;;;2.78;2.40;;;18.30;99.90;;;;;;5060405;28;20029;-64
2022/05/19 04:39:40;;;;;;;3.65;2.63;;;18.30;99.90;;;;;;5063264;28;20033;-63
2022/05/19 04:42:07;;;;;;;6.40;3.15;;;18.40;99.90;;;;;;5053411;28;20047;-64
2022/05/19 04:44:33;;;;;;;3.75;2.95;;;18.40;99.90;;;;;;5043981;28;20546;-64
2022/05/19 04:46:58;;;;;;;2.92;2.55;;;18.40;99.90;;;;;;5066010;28;20124;-64
2022/05/19 04:49:24;;;;;;;3.58;2.33;;;18.40;99.90;;;;;;5067600;28;20111;-62
2022/05/19 04:51:49;;;;;;;4.53;2.88;;;18.50;99.90;;;;;;5063155;28;20048;-64
2022/05/19 04:54:15;;;;;;;8.32;3.45;;;18.50;99.90;;;;;;5063253;28;20089;-64
2022/05/19 04:56:41;;;;;;;3.33;2.58;;;18.50;99.90;;;;;;5067325;28;20024;-63
2022/05/19 04:59:13;;;;;;;6.88;2.65;;;18.60;99.90;;;;;;5057677;28;20463;-64
2022/05/19 05:01:40;;;;;;;5.85;3.05;;;18.60;99.90;;;;;;5057268;28;20059;-64
2022/05/19 05:04:06;;;;;;;5.00;2.60;;;18.60;99.90;;;;;;5046417;28;20020;-63
2022/05/19 05:06:32;;;;;;;4.05;2.53;;;18.60;99.90;;;;;;5068559;28;20034;-64
2022/05/19 05:08:57;;;;;;;5.38;2.60;;;18.70;99.90;;;;;;5065473;28;20024;-63
2022/05/19 05:11:23;;;;;;;7.93;2.60;;;18.70;99.90;;;;;;5043173;28;20059;-62
2022/05/19 05:13:49;;;;;;;4.05;2.70;;;18.80;99.90;;;;;;5069434;28;20017;-64
2022/05/19 05:16:14;;;;;;;4.97;2.97;;;18.80;99.90;;;;;;5066577;28;20036;-65
2022/05/19 05:18:40;;;;;;;4.93;3.25;;;18.90;99.90;;;;;;5068642;28;20035;-64
2022/05/19 05:21:06;;;;;;;5.43;3.20;;;19.00;99.90;;;;;;5066136;28;20033;-64
2022/05/19 05:23:32;;;;;;;3.10;2.55;;;19.00;99.90;;;;;;5063123;28;20112;-64
2022/05/19 05:25:57;;;;;;;3.38;2.97;;;19.10;99.90;;;;;;5057712;28;20124;-65
2022/05/19 05:28:23;;;;;;;9.48;3.88;;;19.20;99.90;;;;;;5072698;28;20024;-64
2022/05/19 05:30:49;;;;;;;5.72;3.05;;;19.30;99.90;;;;;;5063126;28;20028;-63
2022/05/19 05:33:16;;;;;;;4.10;2.58;;;19.30;99.90;;;;;;5053301;28;20032;-64
2022/05/19 05:35:41;;;;;;;6.97;3.00;;;19.40;99.90;;;;;;5057899;28;20051;-64
2022/05/19 05:38:07;;;;;;;4.50;2.30;;;19.50;99.90;;;;;;5054897;28;20052;-64
2022/05/19 05:40:34;;;;;;;3.05;2.58;;;19.50;99.90;;;;;;5059232;28;20032;-64
2022/05/19 05:43:08;;;;;;;7.95;3.30;;;19.60;99.90;;;;;;5058283;28;20447;-65
2022/05/19 05:45:33;;;;;;;4.90;2.70;;;19.70;99.90;;;;;;5057937;28;20024;-64
2022/05/19 05:47:59;;;;;;;5.07;3.00;;;19.80;99.90;;;;;;5064252;28;20402;-64
2022/05/19 05:50:24;;;;;;;4.28;2.53;;;19.80;99.90;;;;;;5055448;28;20028;-65
2022/05/19 05:52:50;;;;;;;5.32;2.50;;;19.90;99.90;;;;;;5062227;28;20352;-64
2022/05/19 05:55:15;;;;;;;10.55;3.08;;;20.00;99.90;;;;;;5051424;28;20051;-65
2022/05/19 05:57:41;;;;;;;4.72;2.95;;;20.00;99.90;;;;;;5059941;28;20070;-63
2022/05/19 06:00:09;;;;;;;20.95;5.32;;;20.00;99.90;;;;;;5066328;28;20040;-65
2022/05/19 06:02:35;;;;;;;23.63;5.85;;;20.00;99.90;;;;;;5066748;28;20031;-64
2022/05/19 06:05:00;;;;;;;15.82;4.35;;;19.90;99.90;;;;;;5065378;28;20025;-64
2022/05/19 06:07:29;;;;;;;9.05;3.92;;;19.90;99.90;;;;;;5050532;28;20025;-64
2022/05/19 06:09:56;;;;;;;6.75;3.50;;;19.80;99.90;;;;;;5055792;28;20031;-64
2022/05/19 06:12:23;;;;;;;8.23;3.20;;;19.80;99.90;;;;;;5060503;28;20028;-64
2022/05/19 06:14:49;;;;;;;8.60;2.83;;;19.80;99.90;;;;;;5056101;28;20025;-64
2022/05/19 06:17:14;;;;;;;5.90;2.97;;;19.80;99.90;;;;;;5050806;28;20021;-64
2022/05/19 06:19:40;;;;;;;6.13;3.55;;;19.80;99.90;;;;;;5062653;28;20376;-64
2022/05/19 06:22:06;;;;;;;9.98;3.72;;;19.90;99.90;;;;;;5050801;28;20056;-64
2022/05/19 06:24:34;;;;;;;8.55;3.50;;;20.00;99.90;;;;;;5057699;28;20047;-64
2022/05/19 06:27:00;;;;;;;7.57;3.38;;;20.10;99.90;;;;;;5052071;28;20027;-64
2022/05/19 06:29:26;;;;;;;5.07;2.60;;;20.30;99.90;;;;;;5068028;28;20405;-64
2022/05/19 06:31:51;;;;;;;7.93;3.00;;;20.30;99.90;;;;;;5064659;28;20036;-65
2022/05/19 06:34:17;;;;;;;6.28;3.10;;;20.50;99.90;;;;;;5060318;28;20029;-64
2022/05/19 06:36:42;;;;;;;5.78;3.13;;;20.60;99.90;;;;;;5063057;28;20036;-64
2022/05/19 06:39:08;;;;;;;5.10;2.80;;;20.70;99.90;;;;;;5067255;28;20116;-64
2022/05/19 06:44:18;;;;;;;8.32;4.38;;;20.80;99.90;;;;;;5066582;28;20027;-64
2022/05/19 06:46:47;;;;;;;11.50;3.75;;;20.90;99.90;;;;;;5066840;28;20041;-65
2022/05/19 06:49:13;;;;;;;8.20;3.75;;;21.10;99.90;;;;;;5064323;28;20039;-64
2022/05/19 06:51:39;;;;;;;8.95;3.75;;;21.20;99.90;;;;;;5050574;28;20025;-64
2022/05/19 06:54:05;;;;;;;7.53;3.15;;;21.20;99.90;;;;;;5050493;28;20122;-64
2022/05/19 06:56:30;;;;;;;7.70;3.45;;;21.30;99.90;;;;;;5050553;28;20502;-64
2022/05/19 06:58:56;;;;;;;11.02;3.33;;;21.30;99.90;;;;;;5049120;28;20017;-63
2022/05/19 07:01:22;;;;;;;5.00;2.92;;;21.40;99.90;;;;;;5056599;28;20111;-63
2022/05/19 07:03:49;;;;;;;5.07;2.75;;;21.40;99.90;;;;;;5061533;28;20025;-64
2022/05/19 07:06:15;;;;;;;4.32;2.65;;;21.50;99.90;;;;;;5056771;28;20025;-64
2022/05/19 07:08:41;;;;;;;3.90;2.70;;;21.60;99.90;;;;;;5053958;28;20028;-65
2022/05/19 07:11:24;;;;;;;4.20;2.70;;;21.60;99.90;;;;;;5059914;28;20032;-64
2022/05/19 07:13:51;;;;;;;4.18;3.05;;;21.70;99.90;;;;;;5060378;28;20052;-64
2022/05/19 07:16:17;;;;;;;9.07;3.65;;;21.80;99.90;;;;;;5065277;28;20012;-65
2022/05/19 07:18:42;;;;;;;6.07;3.10;;;21.90;99.90;;;;;;5059854;28;20029;-64
2022/05/19 07:21:09;;;;;;;5.80;3.28;;;21.90;99.90;;;;;;5060672;28;20039;-65
2022/05/19 07:23:36;;;;;;;6.70;3.42;;;22.00;99.90;;;;;;5050465;28;20017;-64
2022/05/19 07:26:01;;;;;;;4.30;2.60;;;22.10;99.90;;;;;;5056737;28;20029;-64
2022/05/19 07:28:27;;;;;;;4.07;2.65;;;22.20;99.90;;;;;;5059112;28;20099;-65
2022/05/19 07:30:53;;;;;;;2.97;2.47;;;22.30;99.90;;;;;;5060211;28;20028;-65
2022/05/19 07:33:18;;;;;;;5.90;2.95;;;22.50;99.90;;;;;;5054696;28;20029;-65
2022/05/19 07:35:47;;;;;;;4.72;2.47;;;22.70;99.90;;;;;;5062486;28;20033;-65
2022/05/19 07:38:14;;;;;;;6.30;2.85;;;22.90;99.90;;;;;;5058086;28;20060;-64
2022/05/19 07:40:41;;;;;;;6.75;3.03;;;23.10;99.90;;;;;;5049093;28;20029;-64
2022/05/19 07:45:51;;;;;;;6.60;2.67;;;23.30;99.90;;;;;;5060045;28;20132;-65
2022/05/19 07:48:17;;;;;;;5.97;2.47;;;23.40;99.90;;;;;;5068733;28;20107;-65
2022/05/19 07:50:43;;;;;;;4.63;2.80;;;23.40;99.90;;;;;;5066768;28;20418;-64
2022/05/19 07:53:08;;;;;;;8.18;4.20;;;23.50;99.90;;;;;;5054718;28;20103;-64
2022/05/19 07:55:34;;;;;;;5.43;3.40;;;23.50;99.90;;;;;;5062774;28;20059;-65
2022/05/19 07:58:00;;;;;;;4.80;2.85;;;23.50;99.90;;;;;;5051140;28;20033;-64
2022/05/19 08:00:25;;;;;;;4.78;3.17;;;23.60;99.90;;;;;;5063924;28;20017;-64
2022/05/19 08:02:51;;;;;;;6.03;3.08;;;23.70;99.90;;;;;;5054540;28;20071;-65
2022/05/19 08:05:16;;;;;;;8.38;2.95;;;23.80;99.90;;;;;;5055124;28;20108;-65
2022/05/19 08:07:42;;;;;;;8.18;3.13;;;23.80;99.90;;;;;;5065772;28;20032;-65
2022/05/19 08:10:20;;;;;;;3.38;2.92;;;23.80;99.90;;;;;;5057602;28;20033;-64
2022/05/19 08:15:36;;;;;;;7.60;3.50;;;23.80;99.90;;;;;;5064530;28;20086;-65
2022/05/19 08:18:23;;;;;;;7.55;2.80;;;23.80;99.90;;;;;;5069273;28;20028;-65
2022/05/19 08:20:56;;;;;;;10.07;2.70;;;23.90;99.90;;;;;;5063077;28;20032;-65
2022/05/19 08:23:34;;;;;;;4.78;2.65;;;24.00;99.90;;;;;;5062508;28;20487;-65
2022/05/19 08:26:00;;;;;;;4.40;2.70;;;24.10;99.90;;;;;;5062815;28;20039;-65
2022/05/19 08:28:29;;;;;;;4.10;2.60;;;24.10;99.90;;;;;;5065407;28;20081;-65
2022/05/19 08:30:57;;;;;;;4.45;2.70;;;24.20;99.90;;;;;;5066539;28;20021;-65
2022/05/19 08:33:23;;;;;;;5.20;2.10;;;24.20;99.90;;;;;;5067491;28;20025;-65
2022/05/19 08:35:49;;;;;;;6.63;2.78;;;24.40;99.90;;;;;;5056824;28;20028;-65
2022/05/19 08:38:15;;;;;;;8.38;2.70;;;24.50;99.90;;;;;;5055430;28;20370;-64
2022/05/19 08:41:13;;;;;;;8.73;3.15;;;24.70;99.90;;;;;;5069777;28;20070;-64
2022/05/19 08:43:48;;;;;;;4.85;2.58;;;24.80;99.90;;;;;;5064833;28;20070;-65
2022/05/19 08:46:25;;;;;;;10.30;3.50;;;25.00;99.90;;;;;;5053804;28;20036;-65
2022/05/19 08:48:55;;;;;;;3.88;2.35;;;25.00;99.90;;;;;;5065143;28;20032;-65
2022/05/19 08:51:25;;;;;;;7.45;2.53;;;25.10;99.90;;;;;;5057213;28;20449;-65
2022/05/19 08:53:57;;;;;;;6.55;2.95;;;25.10;99.90;;;;;;5070037;28;20096;-65
2022/05/19 08:56:36;;;;;;;6.32;3.45;;;25.20;99.90;;;;;;5051941;28;20025;-65
2022/05/19 08:59:13;;;;;;;7.07;2.90;;;25.20;99.90;;;;;;5068119;28;20025;-63
2022/05/19 09:01:55;;;;;;;6.47;2.10;;;25.20;99.90;;;;;;5061733;28;20082;-63
2022/05/19 09:04:42;;;;;;;3.97;2.53;;;25.20;99.90;;;;;;5070298;28;20031;-64
2022/05/19 09:07:57;;;;;;;7.35;2.65;;;25.30;99.90;;;;;;5054467;28;20059;-64
2022/05/19 09:10:36;;;;;;;6.40;2.47;;;25.50;99.90;;;;;;5062557;28;20032;-65
2022/05/19 09:13:23;;;;;;;4.53;2.30;;;25.70;99.90;;;;;;5062524;28;20482;-64
2022/05/19 09:15:49;;;;;;;3.47;2.30;;;25.80;99.90;;;;;;5060032;28;20073;-63
2022/05/19 09:18:17;;;;;;;5.50;2.45;;;25.90;99.90;;;;;;5059782;28;20542;-64
2022/05/19 09:20:50;;;;;;;5.60;2.92;;;26.00;99.90;;;;;;5063453;28;20052;-63
2022/05/19 09:23:16;;;;;;;4.32;2.30;;;26.10;99.90;;;;;;5058545;28;20029;-64
2022/05/19 09:25:49;;;;;;;9.32;2.58;;;26.20;99.90;;;;;;5059851;28;20036;-64
2022/05/19 09:28:14;;;;;;;3.83;2.35;;;26.30;99.90;;;;;;5059156;28;20150;-64
2022/05/19 09:30:48;;;;;;;5.53;2.67;;;26.40;99.90;;;;;;5053985;28;20112;-63
2022/05/19 09:33:20;;;;;;;5.00;2.80;;;26.40;99.90;;;;;;5063146;28;20672;-64
2022/05/19 09:35:51;;;;;;;4.20;2.55;;;26.60;99.90;;;;;;5069241;28;20139;-63
2022/05/19 09:38:30;;;;;;;4.10;2.42;;;26.60;99.90;;;;;;5095760;22;20039;-62
2022/05/19 09:41:04;;;;;;;3.08;2.30;;;26.70;99.90;;;;;;5073445;28;20541;-62
2022/05/19 09:43:33;;;;;;;8.38;2.50;;;26.90;99.90;;;;;;5070293;28;20035;-62
2022/05/19 09:46:17;;;;;;;5.38;2.63;;;27.10;99.90;;;;;;5070122;28;20037;-62
2022/05/19 09:49:04;;;;;;;8.18;2.83;;;27.30;99.90;;;;;;5063175;28;20722;-63
2022/05/19 09:51:48;;;;;;;5.65;3.78;;;27.50;99.90;;;;;;5049861;28;20029;-59
2022/05/19 09:54:15;;;;;;;4.82;2.60;;;27.70;99.90;;;;;;5049262;28;20104;-63
2022/05/19 09:56:47;;;;;;;5.55;3.03;;;27.80;99.90;;;;;;5051144;28;20024;-62
2022/05/19 09:59:24;;;;;;;5.90;2.45;;;27.90;99.90;;;;;;5049044;28;20029;-60
2022/05/19 10:02:18;;;;;;;5.95;2.40;;;28.00;99.90;;;;;;5050356;28;20501;-60
2022/05/19 10:04:56;;;;;;;3.38;2.05;;;28.10;99.90;;;;;;5032992;28;20033;-61
2022/05/19 10:07:29;;;;;;;8.48;2.50;;;28.00;99.90;;;;;;5045186;28;20029;-62
2022/05/19 10:09:57;;;;;;;8.95;2.72;;;27.90;99.90;;;;;;5050677;28;20391;-62
2022/05/19 10:12:31;;;;;;;4.40;2.03;;;27.70;99.90;;;;;;5048493;28;20082;-60
2022/05/19 10:15:02;;;;;;;7.20;2.95;;;27.70;99.90;;;;;;5050943;28;20040;-62
2022/05/19 10:17:50;;;;;;;3.00;2.30;;;27.80;99.90;;;;;;5051476;28;20025;-60
2022/05/19 10:20:25;;;;;;;2.70;2.15;;;27.80;99.90;;;;;;5054859;28;20479;-61
2022/05/19 10:23:14;;;;;;;3.35;2.30;;;28.20;99.90;;;;;;5050428;28;20033;-61
2022/05/19 10:26:07;;;;;;;6.18;2.60;;;28.40;99.90;;;;;;5051146;28;20036;-61
2022/05/19 10:32:09;;;;;;;5.10;2.20;;;28.40;99.90;;;;;;5049484;28;20039;-61
2022/05/19 10:34:51;;;;;;;7.43;2.15;;;28.30;99.90;;;;;;5050493;28;20021;-59
2022/05/19 10:37:37;;;;;;;4.22;2.63;;;28.20;99.90;;;;;;5047287;28;20066;-61
2022/05/19 10:40:29;;;;;;;5.28;2.30;;;28.10;99.90;;;;;;5051254;28;20025;-63
2022/05/19 10:43:19;;;;;;;4.75;2.78;;;27.70;99.90;;;;;;5044335;28;20101;-60
2022/05/19 10:45:50;;;;;;;9.40;2.70;;;27.60;99.90;;;;;;5047387;28;20029;-63
2022/05/19 10:48:37;;;;;;;4.53;2.70;;;27.70;99.90;;;;;;5050436;28;20055;-62
2022/05/19 10:51:22;;;;;;;3.22;2.25;;;27.80;99.90;;;;;;5048591;28;20028;-63
2022/05/19 10:53:57;;;;;;;13.75;2.90;;;28.10;99.90;;;;;;5049547;28;20081;-63
2022/05/19 10:56:44;;;;;;;4.47;2.10;;;28.30;99.90;;;;;;5050626;28;20100;-63
2022/05/19 10:59:40;;;;;;;9.13;2.85;;;28.20;99.90;;;;;;5055422;28;20029;-62
2022/05/19 11:02:24;;;;;;;5.18;2.63;;;27.90;99.90;;;;;;5054264;28;20108;-63
2022/05/19 11:05:08;;;;;;;3.20;2.17;;;27.60;99.90;;;;;;5054586;28;20028;-62
2022/05/19 11:08:00;;;;;;;5.45;2.15;;;27.30;99.90;;;;;;5055340;28;20079;-61
2022/05/19 11:10:26;;;;;;;2.85;2.20;;;27.80;99.90;;;;;;5046380;28;20051;-63
2022/05/19 11:13:14;;;;;;;3.58;2.80;;;28.20;99.90;;;;;;5049686;28;20025;-63
2022/05/19 11:15:45;;;;;;;2.67;2.30;;;28.10;99.90;;;;;;5049531;28;20021;-63
2022/05/19 11:18:13;;;;;;;4.82;2.20;;;27.70;99.90;;;;;;5051169;28;20067;-61
2022/05/19 11:21:08;;;;;;;4.38;2.30;;;27.50;99.90;;;;;;5049344;28;20039;-62
2022/05/19 11:23:54;;;;;;;5.60;2.03;;;27.30;99.90;;;;;;5040588;28;20112;-60
2022/05/19 11:26:32;;;;;;;5.30;2.17;;;27.20;99.90;;;;;;5048305;28;20032;-61
2022/05/19 11:28:58;;;;;;;4.50;2.40;;;27.60;99.90;;;;;;5047039;28;20029;-59
2022/05/19 11:31:44;;;;;;;4.40;3.05;;;27.90;99.90;;;;;;5049592;28;20061;-60
2022/05/19 11:34:37;;;;;;;3.47;2.38;;;27.80;99.90;;;;;;5044858;28;20017;-62
2022/05/19 11:37:30;;;;;;;4.78;2.58;;;28.20;99.90;;;;;;5047114;28;20036;-62
2022/05/19 11:40:13;;;;;;;4.72;2.50;;;28.50;99.90;;;;;;5041081;28;20044;-62
2022/05/19 11:42:54;;;;;;;7.97;2.60;;;29.10;99.90;;;;;;5049952;28;20025;-61
2022/05/19 11:45:47;;;;;;;6.13;2.95;;;29.50;99.90;;;;;;5046258;28;20026;-61
2022/05/19 11:57:56;;;;;;;3.95;2.53;;;30.50;99.90;;;;;;5051564;28;20044;-63
2022/05/19 12:00:41;;;;;;;11.23;2.85;;;30.30;99.90;;;;;;5044959;28;20117;-61
2022/05/19 12:03:15;;;;;;;4.93;2.42;;;30.10;99.90;;;;;;5049119;28;20049;-60
2022/05/19 12:05:56;;;;;;;4.50;2.63;;;30.10;99.90;;;;;;5050592;28;20036;-58
2022/05/19 12:08:32;;;;;;;4.40;2.30;;;30.00;99.90;;;;;;5052351;28;20113;-60
2022/05/19 12:11:22;;;;;;;3.88;2.50;;;30.40;99.90;;;;;;5048885;28;20025;-60
2022/05/19 12:14:05;;;;;;;7.20;2.55;;;30.80;99.90;;;;;;5055046;28;20079;-63
2022/05/19 12:16:52;;;;;;;4.60;1.90;;;31.00;99.90;;;;;;5052986;28;20036;-61
2022/05/19 12:19:36;;;;;;;7.22;2.17;;;31.20;99.90;;;;;;5055731;28;20274;-62
2022/05/19 12:22:10;;;;;;;4.30;2.35;;;31.60;99.90;;;;;;5054175;28;20029;-61
2022/05/19 12:24:37;;;;;;;4.40;2.53;;;31.60;99.90;;;;;;5050896;28;20044;-60
2022/05/19 12:27:15;;;;;;;4.78;2.25;;;31.80;99.90;;;;;;5052351;28;20033;-56
2022/05/19 12:31:56;;;;;;;6.18;2.75;;;32.10;99.90;;;;;;5034876;28;20037;-58
2022/05/19 12:33:15;;;;;;;7.10;2.50;;;32.10;99.90;;;;;;5050861;28;20399;-61
2022/05/19 12:35:43;;;;;;;8.70;2.55;;;32.10;99.90;;;;;;5047547;28;20079;-62
2022/05/19 12:38:40;;;;;;;6.40;2.17;;;32.20;99.90;;;;;;5050642;28;20025;-62
2022/05/19 12:41:08;;;;;;;3.70;2.50;;;32.60;99.90;;;;;;5029456;28;20108;-63
2022/05/19 12:43:37;;;;;;;3.20;2.25;;;32.50;99.90;;;;;;5066043;28;20017;-62
2022/05/19 12:46:04;;;;;;;7.85;2.35;;;32.40;99.90;;;;;;5055136;28;20025;-62
2022/05/19 12:48:32;;;;;;;3.38;2.30;;;32.60;99.90;;;;;;5050321;28;20553;-60
2022/05/19 12:51:14;;;;;;;1.95;1.83;;;32.50;99.90;;;;;;5055984;28;20037;-62
2022/05/19 12:53:45;;;;;;;5.70;2.30;;;32.70;99.90;;;;;;5044947;28;20033;-63
2022/05/19 12:56:33;;;;;;;6.63;2.83;;;32.90;99.90;;;;;;5054761;28;20517;-62
2022/05/19 12:59:04;;;;;;;5.00;2.50;;;33.00;99.90;;;;;;5051681;28;20029;-62
2022/05/19 13:01:32;;;;;;;3.58;2.10;;;33.30;99.90;;;;;;5054669;28;20044;-63
2022/05/19 13:04:05;;;;;;;3.58;2.50;;;33.40;99.90;;;;;;5054927;28;20039;-63
2022/05/19 13:06:32;;;;;;;7.43;3.20;;;33.40;99.90;;;;;;5054868;28;20017;-66
2022/05/19 13:09:03;;;;;;;2.90;2.35;;;33.20;99.90;;;;;;5050533;28;20037;-62
2022/05/19 13:11:36;;;;;;;3.55;2.13;;;32.70;99.90;;;;;;5050226;28;20029;-61
2022/05/19 13:14:13;;;;;;;3.13;2.75;;;31.80;99.90;;;;;;5050436;28;20036;-62
2022/05/19 13:16:44;;;;;;;10.70;2.83;;;31.20;99.90;;;;;;5046197;28;20158;-62
2022/05/19 13:19:26;;;;;;;6.68;2.53;;;30.70;99.90;;;;;;5053935;28;20036;-63
2022/05/19 13:22:14;;;;;;;6.10;2.42;;;30.30;99.90;;;;;;5030834;28;20021;-61
2022/05/19 13:24:41;;;;;;;19.38;2.92;;;29.90;99.90;;;;;;5050965;28;20166;-62
2022/05/19 13:32:40;;;;;;;85.97;9.97;;;25.90;99.90;;;;;;5050115;28;20408;-60
2022/05/19 13:35:19;;;;;;;66.05;6.82;;;24.60;99.90;;;;;;5051778;28;20074;-62
2022/05/19 13:37:47;;;;;;;38.33;4.07;;;24.00;99.90;;;;;;5047789;28;20033;-59